Terminal Aerodrome Forecast
Issued by NWS

Home | Current Version | Previous Version | Text Only | Print | Product List | Glossary On
Versions: 1 2 3 4 5 6 7 8 9 10 11 12 13 14 15 16 17 18 19 20
000
FTUS46 KEKA 152340
TAFCEC
TAF
KCEC 152340Z 1600/1624 30008KT 5SM HZ VCSH BKN012 OVC100
      TEMPO 1600/1603 34010G16KT 6SM -RA BKN010
     FM160300 36010KT P6SM SCT025 SCT050 BKN250
     FM161000 36007KT 5SM BR SCT250
     FM161700 35009KT P6SM FEW250=

USA.gov is the U.S. government's official web portal to all federal, state and local government web resources and services.